Lunana, North Carolina
Current Conditions -  °F | °C
As of 9:35 AM on Thursday 27 Nov 2014 (Local Time) from KGWW Reporting Station
Broken Clouds Broken Clouds  
Wind Chill: 43°   Ceiling: 7500
Heat Index: 43°   Visibility: 10mi
Dew Point: 40°   Wind: 0mph
Humidity: 88%   Direction: NA
Pressure: 30.02"   Gusts: NA
Location:  35.6422°N, 78.0265°W
Report Text: KGWW 271435Z AUTO 00000KT 10SM BKN075 BKN085 06/05 A3002 RMK AO2 T00630045
Loading
Personal Weather Stations






























Interactive Weather Map New forecast layout! Learn more

10-Day Weather Forecast

Advertisements
Track Severe Weather on mobile